Time;durP1;ratioP1;P1;durP2;ratioP2;P2;SDS_P1;SDS_P2;PMS_P1;PMS_P2;Temp;Humidity;BMP_temperature;BMP_pressure;BME280_temperature;BME280_humidity;BME280_pressure;Samples;Min_cycle;Max_cycle;Signal;HPM_P1;HPM_P2
2022/01/01 00:00:33;;;;;;;36.87;25.67;;;11.90;99.90;;;;;;5012646;28;20279;-75
2022/01/01 00:02:59;;;;;;;30.80;23.93;;;11.90;99.90;;;;;;5012867;28;20176;-74
2022/01/01 00:05:24;;;;;;;31.63;22.20;;;11.90;99.90;;;;;;4995165;28;20443;-73
2022/01/01 00:07:50;;;;;;;35.37;22.70;;;11.90;99.90;;;;;;4995299;28;20674;-74
2022/01/01 00:10:17;;;;;;;29.30;21.23;;;11.90;99.90;;;;;;5013281;28;20655;-74
2022/01/01 00:12:42;;;;;;;19.97;15.93;;;12.00;99.90;;;;;;4995078;28;20635;-72
2022/01/01 00:15:08;;;;;;;23.50;15.77;;;11.90;99.90;;;;;;5012418;28;20407;-73
2022/01/01 00:17:33;;;;;;;17.50;15.37;;;11.90;99.90;;;;;;5012792;28;20266;-73
2022/01/01 00:19:59;;;;;;;21.40;14.77;;;11.90;99.90;;;;;;5012614;28;20537;-74
2022/01/01 00:22:24;;;;;;;19.43;13.17;;;12.00;99.90;;;;;;5012849;28;20310;-74
2022/01/01 00:24:50;;;;;;;23.73;13.60;;;12.00;99.90;;;;;;5012139;28;20164;-73
2022/01/01 00:27:15;;;;;;;18.50;12.67;;;12.00;99.90;;;;;;5012114;28;20213;-73
2022/01/01 00:29:41;;;;;;;13.33;10.50;;;12.00;99.90;;;;;;5011900;28;20252;-73
2022/01/01 00:32:06;;;;;;;20.90;13.43;;;12.00;99.90;;;;;;5012071;28;20172;-72
2022/01/01 00:34:34;;;;;;;13.47;9.67;;;12.00;99.90;;;;;;4994516;28;20176;-72
2022/01/01 00:37:00;;;;;;;17.30;9.87;;;12.00;99.90;;;;;;5012042;28;20173;-72
2022/01/01 00:39:25;;;;;;;10.47;7.20;;;12.00;99.90;;;;;;5011734;28;20551;-73
2022/01/01 00:41:50;;;;;;;12.37;7.57;;;12.00;99.90;;;;;;5011712;28;20537;-73
2022/01/01 00:44:16;;;;;;;14.83;7.10;;;12.00;99.90;;;;;;5011458;28;20259;-73
2022/01/01 00:46:41;;;;;;;11.57;7.20;;;12.00;99.90;;;;;;5012040;28;20165;-73
2022/01/01 00:49:07;;;;;;;8.27;6.17;;;12.10;99.90;;;;;;5011798;28;20679;-73
2022/01/01 00:51:33;;;;;;;9.67;6.83;;;12.10;99.90;;;;;;5011607;28;20191;-72
2022/01/01 00:53:59;;;;;;;10.70;7.37;;;12.10;99.90;;;;;;5011489;28;20183;-73
2022/01/01 00:56:24;;;;;;;7.60;5.50;;;12.10;99.90;;;;;;5011483;28;20411;-72
2022/01/01 00:58:50;;;;;;;11.47;7.30;;;12.10;99.90;;;;;;5041757;23;20276;-72
2022/01/01 01:01:15;;;;;;;7.60;5.40;;;12.10;99.90;;;;;;5051652;28;20241;-71
2022/01/01 01:03:41;;;;;;;9.40;6.63;;;12.10;99.90;;;;;;5051751;28;20647;-72
2022/01/01 01:06:06;;;;;;;13.90;8.33;;;12.10;99.90;;;;;;5051567;28;20736;-72
2022/01/01 01:08:32;;;;;;;13.20;8.53;;;12.10;99.90;;;;;;5051618;28;20201;-71
2022/01/01 01:10:58;;;;;;;12.30;7.23;;;12.10;99.90;;;;;;5051299;28;20246;-72
2022/01/01 01:13:26;;;;;;;13.20;7.93;;;12.20;99.90;;;;;;5051606;28;20175;-74
2022/01/01 01:15:52;;;;;;;13.23;8.53;;;12.10;99.90;;;;;;5051757;28;20783;-73
2022/01/01 01:18:17;;;;;;;13.03;8.20;;;12.10;99.90;;;;;;5051828;28;20452;-74
2022/01/01 01:20:44;;;;;;;9.43;6.87;;;12.10;99.90;;;;;;5052055;28;20286;-73
2022/01/01 01:23:09;;;;;;;10.70;7.07;;;12.10;99.90;;;;;;5051846;28;20430;-74
2022/01/01 01:25:40;;;;;;;13.17;8.27;;;12.10;99.90;;;;;;5052752;28;20690;-74
2022/01/01 01:28:08;;;;;;;16.07;8.40;;;12.10;99.90;;;;;;5052526;28;20564;-74
2022/01/01 01:30:35;;;;;;;10.20;7.37;;;12.10;99.90;;;;;;5052080;28;20428;-74
2022/01/01 01:33:01;;;;;;;10.80;7.30;;;12.10;99.90;;;;;;5051769;28;20524;-74
2022/01/01 01:35:27;;;;;;;16.30;7.77;;;12.10;99.90;;;;;;5052955;28;20876;-73
2022/01/01 01:37:52;;;;;;;11.17;8.80;;;12.00;99.90;;;;;;5052933;28;20421;-73
2022/01/01 01:40:18;;;;;;;14.70;7.53;;;12.00;99.90;;;;;;5051786;28;20289;-73
2022/01/01 01:42:45;;;;;;;7.47;5.83;;;12.00;99.90;;;;;;5051490;28;20171;-72
2022/01/01 01:45:15;;;;;;;12.93;7.97;;;12.00;99.90;;;;;;5051817;28;20255;-73
2022/01/01 01:47:42;;;;;;;14.57;7.73;;;12.00;99.90;;;;;;5052236;28;20493;-73
2022/01/01 01:50:09;;;;;;;13.30;7.37;;;12.00;99.90;;;;;;5052332;28;20433;-75
2022/01/01 01:52:37;;;;;;;10.17;7.30;;;12.00;99.90;;;;;;5052103;28;20454;-74
2022/01/01 01:55:07;;;;;;;15.40;9.97;;;12.00;99.90;;;;;;5052154;28;20550;-73
2022/01/01 01:57:35;;;;;;;11.13;7.90;;;12.00;99.90;;;;;;5051858;28;20411;-74
2022/01/01 02:00:01;;;;;;;12.10;8.20;;;12.00;99.90;;;;;;5051661;28;20464;-74
2022/01/01 02:02:26;;;;;;;11.80;7.87;;;12.00;99.90;;;;;;5052034;28;20402;-74
2022/01/01 02:04:51;;;;;;;8.03;6.63;;;12.00;99.90;;;;;;5051715;28;20645;-73
2022/01/01 02:07:18;;;;;;;11.77;7.97;;;11.90;99.90;;;;;;5052058;28;20167;-74
2022/01/01 02:09:44;;;;;;;16.07;7.60;;;11.90;99.90;;;;;;5051282;28;20202;-73
2022/01/01 02:12:09;;;;;;;11.40;7.80;;;11.90;99.90;;;;;;5051628;28;20405;-74
2022/01/01 02:17:23;;;;;;;8.37;6.47;;;11.90;99.90;;;;;;5051087;28;20645;-74
2022/01/01 02:19:50;;;;;;;12.93;7.70;;;11.90;99.90;;;;;;5051053;28;20461;-73
2022/01/01 02:22:16;;;;;;;15.83;8.33;;;11.90;99.90;;;;;;5053344;28;20413;-72
2022/01/01 02:24:42;;;;;;;11.07;6.60;;;11.90;99.90;;;;;;5053880;28;20406;-73
2022/01/01 02:27:08;;;;;;;9.67;6.13;;;11.90;99.90;;;;;;5054620;28;20463;-73
2022/01/01 02:29:34;;;;;;;8.77;5.60;;;11.90;99.90;;;;;;5054723;28;20187;-73
2022/01/01 02:32:00;;;;;;;11.30;6.73;;;11.90;99.90;;;;;;5054441;28;20444;-73
2022/01/01 02:34:25;;;;;;;11.47;7.17;;;11.90;99.90;;;;;;5054505;28;20441;-73
2022/01/01 02:36:50;;;;;;;13.87;7.77;;;11.90;99.90;;;;;;5054469;28;20179;-73
2022/01/01 02:39:19;;;;;;;14.63;8.00;;;11.90;99.90;;;;;;5054307;28;20241;-73
2022/01/01 02:41:47;;;;;;;14.00;7.90;;;11.90;99.90;;;;;;5054648;28;20178;-72
2022/01/01 02:44:13;;;;;;;12.67;7.87;;;11.90;99.90;;;;;;5054387;28;20444;-73
2022/01/01 02:46:39;;;;;;;12.47;7.90;;;11.90;99.90;;;;;;5054273;28;20402;-73
2022/01/01 02:49:05;;;;;;;14.53;8.10;;;11.90;99.90;;;;;;5054385;28;20958;-73
2022/01/01 02:51:31;;;;;;;10.93;8.73;;;11.90;99.90;;;;;;5054393;28;20828;-73
2022/01/01 02:53:57;;;;;;;18.50;10.13;;;11.90;99.90;;;;;;5054168;28;20409;-74
2022/01/01 02:56:23;;;;;;;11.27;7.60;;;11.90;99.90;;;;;;5054257;28;20420;-73
2022/01/01 02:58:49;;;;;;;13.07;8.20;;;11.90;99.90;;;;;;5053915;28;20465;-73
2022/01/01 03:01:15;;;;;;;13.20;8.30;;;11.90;99.90;;;;;;5054299;28;20414;-73
2022/01/01 03:03:41;;;;;;;14.10;8.20;;;11.90;99.90;;;;;;5054131;28;20174;-73
2022/01/01 03:06:07;;;;;;;17.23;9.00;;;11.90;99.90;;;;;;5053986;28;20607;-73
2022/01/01 03:08:32;;;;;;;14.53;7.53;;;11.90;99.90;;;;;;5053928;28;20504;-74
2022/01/01 03:10:58;;;;;;;13.20;6.97;;;11.90;99.90;;;;;;5054132;28;20170;-73
2022/01/01 03:13:23;;;;;;;10.80;6.00;;;11.90;99.90;;;;;;5053841;28;20546;-72
2022/01/01 03:15:49;;;;;;;8.33;5.63;;;11.90;99.90;;;;;;5053820;28;20237;-73
2022/01/01 03:18:14;;;;;;;9.63;7.30;;;11.90;99.90;;;;;;5053712;28;20653;-72
2022/01/01 03:20:40;;;;;;;9.90;6.53;;;11.90;99.90;;;;;;5053888;28;20201;-72
2022/01/01 03:23:06;;;;;;;13.67;7.17;;;11.90;99.90;;;;;;5053672;28;20209;-71
2022/01/01 03:25:31;;;;;;;12.77;5.70;;;11.90;99.90;;;;;;5053476;28;20250;-72
2022/01/01 03:27:57;;;;;;;8.90;6.43;;;11.90;99.90;;;;;;5053432;28;20595;-72
2022/01/01 03:30:22;;;;;;;8.10;6.73;;;11.90;99.90;;;;;;5053281;28;20290;-71
2022/01/01 03:32:48;;;;;;;8.20;5.57;;;11.90;99.90;;;;;;5053043;28;20185;-71
2022/01/01 03:35:13;;;;;;;7.33;5.40;;;11.90;99.90;;;;;;5053326;28;20190;-71
2022/01/01 03:37:39;;;;;;;6.77;4.83;;;11.90;99.90;;;;;;5053213;28;20179;-71
2022/01/01 03:40:05;;;;;;;8.97;4.50;;;11.90;99.90;;;;;;5053118;28;20203;-71
2022/01/01 03:42:31;;;;;;;5.90;4.40;;;11.90;99.90;;;;;;5052935;28;20243;-72
2022/01/01 03:44:56;;;;;;;8.47;4.53;;;11.90;99.90;;;;;;5052930;28;20500;-71
2022/01/01 03:47:22;;;;;;;10.47;4.80;;;11.90;99.90;;;;;;5053018;28;20288;-71
2022/01/01 03:49:49;;;;;;;6.70;4.60;;;11.90;99.90;;;;;;5052981;28;20195;-71
2022/01/01 03:52:15;;;;;;;7.67;5.10;;;11.90;99.90;;;;;;5053151;28;20276;-71
2022/01/01 03:54:41;;;;;;;6.90;5.77;;;11.90;99.90;;;;;;5052807;28;20409;-71
2022/01/01 03:57:06;;;;;;;8.10;6.30;;;11.90;99.90;;;;;;5052828;28;20405;-70
2022/01/01 03:59:32;;;;;;;4.80;3.90;;;11.90;99.90;;;;;;5052572;28;20222;-73
2022/01/01 04:01:57;;;;;;;8.47;5.30;;;11.90;99.90;;;;;;5052805;28;20174;-71
2022/01/01 04:04:25;;;;;;;8.67;4.30;;;11.90;99.90;;;;;;5052945;28;20165;-71
2022/01/01 04:06:51;;;;;;;10.07;5.63;;;11.90;99.90;;;;;;5054425;28;20159;-75
2022/01/01 04:09:16;;;;;;;9.90;6.27;;;11.90;99.90;;;;;;5055944;28;20433;-73
2022/01/01 04:11:42;;;;;;;7.37;4.63;;;12.00;99.90;;;;;;5054025;28;20741;-72
2022/01/01 04:14:12;;;;;;;7.90;5.60;;;12.00;99.90;;;;;;5052825;28;20229;-72
2022/01/01 04:16:38;;;;;;;11.73;5.07;;;12.00;99.90;;;;;;5053362;28;20413;-71
2022/01/01 04:19:03;;;;;;;11.63;5.50;;;12.00;99.90;;;;;;5052957;28;20496;-72
2022/01/01 04:21:29;;;;;;;6.23;4.63;;;12.00;99.90;;;;;;5052734;28;20433;-71
2022/01/01 04:23:54;;;;;;;7.43;5.33;;;12.00;99.90;;;;;;5052561;28;20167;-72
2022/01/01 04:26:20;;;;;;;10.83;6.33;;;12.00;99.90;;;;;;5052325;28;20213;-71
2022/01/01 04:28:45;;;;;;;7.00;5.60;;;12.10;99.90;;;;;;5052586;28;20551;-72
2022/01/01 04:31:13;;;;;;;11.40;6.30;;;12.10;99.90;;;;;;5052364;28;20175;-72
2022/01/01 04:33:38;;;;;;;7.77;6.87;;;12.10;99.90;;;;;;5052504;28;20166;-72
2022/01/01 04:36:04;;;;;;;8.60;5.20;;;12.20;99.90;;;;;;5052368;28;20533;-72
2022/01/01 04:38:40;;;;;;;8.00;5.00;;;12.10;99.90;;;;;;5052633;28;20187;-73
2022/01/01 04:41:12;;;;;;;7.03;5.17;;;12.00;99.90;;;;;;5052417;28;20162;-72
2022/01/01 04:43:40;;;;;;;7.20;5.63;;;12.10;99.90;;;;;;5051764;28;20878;-71
2022/01/01 04:46:06;;;;;;;11.23;6.33;;;12.00;99.90;;;;;;5051695;28;20417;-72
2022/01/01 04:48:31;;;;;;;9.53;5.50;;;12.00;99.90;;;;;;5052034;28;20414;-72
2022/01/01 04:50:57;;;;;;;9.00;6.73;;;12.00;99.90;;;;;;5052433;28;20760;-72
2022/01/01 04:53:22;;;;;;;10.03;5.63;;;12.00;99.90;;;;;;5051998;28;20166;-72
2022/01/01 04:55:49;;;;;;;5.10;4.40;;;12.00;99.90;;;;;;5051806;28;20178;-72
2022/01/01 04:58:15;;;;;;;5.93;4.27;;;12.10;99.90;;;;;;5051937;28;20171;-72
2022/01/01 05:00:41;;;;;;;5.60;3.90;;;12.00;99.90;;;;;;5051705;28;20429;-72
2022/01/01 05:03:07;;;;;;;4.43;3.33;;;12.10;99.90;;;;;;5051945;28;20409;-72
2022/01/01 05:05:32;;;;;;;8.13;4.80;;;12.00;99.90;;;;;;5052218;28;20787;-72
2022/01/01 05:07:58;;;;;;;8.90;5.40;;;12.10;99.90;;;;;;5053390;28;20767;-73
2022/01/01 05:10:26;;;;;;;10.10;7.07;;;12.00;99.90;;;;;;5054039;28;20191;-73
2022/01/01 05:12:52;;;;;;;10.77;7.10;;;12.00;99.90;;;;;;5053661;28;20227;-73
2022/01/01 05:15:18;;;;;;;11.33;5.90;;;12.00;99.90;;;;;;5053415;28;20405;-72
2022/01/01 05:17:44;;;;;;;9.30;5.33;;;12.10;99.90;;;;;;5053324;28;20401;-72
2022/01/01 05:20:10;;;;;;;6.17;5.43;;;12.10;99.90;;;;;;5053286;28;20453;-73
2022/01/01 05:22:35;;;;;;;6.47;5.00;;;12.10;99.90;;;;;;5053688;28;20543;-72
2022/01/01 05:25:01;;;;;;;6.20;5.60;;;12.10;99.90;;;;;;5053109;28;20679;-74
2022/01/01 05:27:27;;;;;;;7.70;4.53;;;12.10;99.90;;;;;;5052298;28;20163;-73
2022/01/01 05:29:53;;;;;;;5.93;4.50;;;12.10;99.90;;;;;;5051514;28;20186;-74
2022/01/01 05:32:18;;;;;;;4.73;3.97;;;12.20;99.90;;;;;;5051312;28;20416;-74
2022/01/01 05:34:44;;;;;;;6.00;4.80;;;12.10;99.90;;;;;;5051785;28;20891;-74
2022/01/01 05:37:09;;;;;;;6.43;4.30;;;12.20;99.90;;;;;;5051923;28;20237;-73
2022/01/01 05:39:35;;;;;;;4.70;3.87;;;12.10;99.90;;;;;;5051336;28;20202;-72
2022/01/01 05:42:00;;;;;;;5.53;4.33;;;12.10;99.90;;;;;;5051383;28;20221;-72
2022/01/01 05:44:26;;;;;;;5.30;4.10;;;12.10;99.90;;;;;;5051584;28;20538;-72
2022/01/01 05:46:53;;;;;;;5.97;4.43;;;12.00;99.90;;;;;;5049861;28;20197;-72
2022/01/01 05:49:19;;;;;;;3.47;3.10;;;12.00;99.90;;;;;;5051276;28;20191;-72
2022/01/01 05:51:44;;;;;;;14.73;5.60;;;12.10;99.90;;;;;;5051201;28;20408;-72
2022/01/01 05:54:10;;;;;;;8.97;5.23;;;12.10;99.90;;;;;;5051628;28;20171;-72
2022/01/01 05:56:35;;;;;;;8.73;4.30;;;12.00;99.90;;;;;;5053793;28;20174;-72
2022/01/01 05:59:01;;;;;;;6.57;4.50;;;12.10;99.90;;;;;;5055026;28;20209;-72
2022/01/01 06:01:26;;;;;;;6.23;5.03;;;12.10;99.90;;;;;;5054938;28;20743;-72
2022/01/01 06:03:52;;;;;;;9.93;5.90;;;12.10;99.90;;;;;;5055041;28;20167;-72
2022/01/01 06:06:17;;;;;;;7.37;5.27;;;12.00;99.90;;;;;;5055056;28;20508;-72
2022/01/01 06:08:42;;;;;;;5.60;3.87;;;12.00;99.90;;;;;;5054803;28;20186;-72
2022/01/01 06:11:08;;;;;;;6.43;4.93;;;12.10;99.90;;;;;;5054824;28;20274;-71
2022/01/01 06:13:33;;;;;;;8.63;5.17;;;12.00;99.90;;;;;;5054799;28;20178;-73
2022/01/01 06:15:59;;;;;;;5.47;4.57;;;12.00;99.90;;;;;;5054908;28;20171;-72
2022/01/01 06:18:24;;;;;;;8.80;5.57;;;12.00;99.90;;;;;;5054673;28;20325;-73
2022/01/01 06:20:50;;;;;;;6.97;4.50;;;12.10;99.90;;;;;;5055462;28;20198;-73
2022/01/01 06:23:15;;;;;;;8.90;5.50;;;12.20;99.90;;;;;;5054543;28;20229;-71
2022/01/01 06:25:41;;;;;;;6.30;4.47;;;12.20;99.90;;;;;;5053243;28;20808;-72
2022/01/01 06:28:06;;;;;;;7.03;4.70;;;12.20;99.90;;;;;;5055796;28;20174;-74
2022/01/01 06:30:33;;;;;;;6.43;5.50;;;12.10;99.90;;;;;;5056788;28;20187;-73
2022/01/01 06:33:12;;;;;;;9.10;5.27;;;12.00;99.90;;;;;;5055479;28;20732;-72
2022/01/01 06:35:39;;;;;;;7.33;5.40;;;12.10;99.90;;;;;;5054583;28;20743;-73
2022/01/01 06:38:05;;;;;;;8.40;5.90;;;12.10;99.90;;;;;;5049405;28;20432;-73
2022/01/01 06:40:30;;;;;;;6.60;5.53;;;12.10;99.90;;;;;;5049846;28;20441;-73
2022/01/01 06:42:56;;;;;;;9.00;5.43;;;12.10;99.90;;;;;;5040617;28;20178;-73
2022/01/01 06:45:21;;;;;;;8.77;5.93;;;12.10;99.90;;;;;;5036338;28;20634;-73
2022/01/01 06:47:47;;;;;;;9.30;4.63;;;12.10;99.90;;;;;;5035388;28;20187;-73
2022/01/01 06:50:12;;;;;;;9.50;5.70;;;12.10;99.90;;;;;;5034685;28;20245;-74
2022/01/01 06:52:45;;;;;;;7.63;6.17;;;12.20;99.90;;;;;;5034290;28;20634;-73
2022/01/01 06:55:12;;;;;;;11.83;5.77;;;12.10;99.90;;;;;;5036483;28;20187;-72
2022/01/01 06:57:40;;;;;;;10.87;6.83;;;12.10;99.90;;;;;;5034112;28;20417;-72
2022/01/01 07:00:06;;;;;;;7.17;4.70;;;12.10;99.90;;;;;;5034829;28;20560;-72
2022/01/01 07:02:40;;;;;;;9.00;6.17;;;12.10;99.90;;;;;;5034047;28;20543;-72
2022/01/01 07:05:07;;;;;;;11.73;6.93;;;12.10;99.90;;;;;;5034122;28;20414;-72
2022/01/01 07:07:33;;;;;;;8.50;5.90;;;12.10;99.90;;;;;;5033607;28;20415;-73
2022/01/01 07:09:58;;;;;;;7.87;5.00;;;12.10;99.90;;;;;;5040659;28;20425;-73
2022/01/01 07:12:24;;;;;;;21.00;7.10;;;12.10;99.90;;;;;;5042765;28;20321;-73
2022/01/01 07:14:49;;;;;;;11.97;7.20;;;12.00;99.90;;;;;;5034143;28;20580;-73
2022/01/01 07:17:14;;;;;;;9.90;4.77;;;12.10;99.90;;;;;;5033827;28;20186;-73
2022/01/01 07:19:40;;;;;;;10.17;6.50;;;12.10;99.90;;;;;;5033623;28;20207;-73
2022/01/01 07:22:05;;;;;;;9.43;5.90;;;12.10;99.90;;;;;;5033781;28;20187;-73
2022/01/01 07:24:31;;;;;;;8.20;6.30;;;12.10;99.90;;;;;;5036766;28;20172;-73
2022/01/01 07:26:57;;;;;;;12.03;6.13;;;12.10;99.90;;;;;;5045759;28;20164;-72
2022/01/01 07:29:22;;;;;;;7.73;5.20;;;12.10;99.90;;;;;;5043528;28;20245;-72
2022/01/01 07:31:48;;;;;;;9.90;5.00;;;12.20;99.90;;;;;;5034782;28;20262;-72
2022/01/01 07:34:13;;;;;;;8.10;4.70;;;12.10;99.90;;;;;;5033353;28;20780;-72
2022/01/01 07:36:39;;;;;;;7.37;6.13;;;12.10;99.90;;;;;;5033574;28;20182;-72
2022/01/01 07:39:04;;;;;;;9.80;5.33;;;12.10;99.90;;;;;;5039714;28;20214;-72
2022/01/01 07:41:30;;;;;;;6.87;6.10;;;12.10;99.90;;;;;;5053345;28;20240;-72
2022/01/01 07:43:55;;;;;;;8.03;5.60;;;12.00;99.90;;;;;;5056978;28;20163;-72
2022/01/01 07:46:21;;;;;;;9.20;5.27;;;12.10;99.90;;;;;;5058291;28;20547;-72
2022/01/01 07:48:46;;;;;;;7.33;5.97;;;12.00;99.90;;;;;;5048386;28;20248;-72
2022/01/01 07:51:12;;;;;;;8.93;5.37;;;12.10;99.90;;;;;;5053209;28;20262;-72
2022/01/01 07:53:37;;;;;;;8.17;6.07;;;12.00;99.90;;;;;;5053099;28;20182;-72
2022/01/01 07:56:03;;;;;;;12.90;5.63;;;12.00;99.90;;;;;;5052939;28;20220;-72
2022/01/01 07:58:31;;;;;;;7.70;5.43;;;12.10;99.90;;;;;;5053027;28;20627;-73
2022/01/01 08:00:56;;;;;;;9.63;6.10;;;12.10;99.90;;;;;;5052896;28;20171;-73
2022/01/01 08:03:22;;;;;;;11.07;7.20;;;12.10;99.90;;;;;;5052613;28;20764;-73
2022/01/01 08:05:47;;;;;;;10.50;6.20;;;12.10;99.90;;;;;;5052795;28;20171;-73
2022/01/01 08:08:12;;;;;;;13.43;7.40;;;12.10;99.90;;;;;;5053329;28;20174;-72
2022/01/01 08:10:39;;;;;;;6.87;5.90;;;12.10;99.90;;;;;;5052626;28;20195;-73
2022/01/01 08:13:06;;;;;;;14.33;7.57;;;12.10;99.90;;;;;;5052625;28;20293;-72
2022/01/01 08:15:31;;;;;;;12.57;6.27;;;12.10;99.90;;;;;;5052325;28;20797;-72
2022/01/01 08:17:57;;;;;;;8.50;6.23;;;12.10;99.90;;;;;;5052323;28;20566;-72
2022/01/01 08:20:22;;;;;;;13.10;6.83;;;12.10;99.90;;;;;;5051299;28;20206;-72
2022/01/01 08:22:48;;;;;;;8.07;5.70;;;12.10;99.90;;;;;;5052616;28;20250;-72
2022/01/01 08:25:16;;;;;;;11.60;6.73;;;12.10;99.90;;;;;;5052321;28;20167;-72
2022/01/01 08:27:42;;;;;;;8.97;5.90;;;12.10;99.90;;;;;;5052309;28;20262;-72
2022/01/01 08:30:08;;;;;;;7.13;6.13;;;12.10;99.90;;;;;;5052070;28;20453;-72
2022/01/01 08:32:33;;;;;;;10.60;5.93;;;12.10;99.90;;;;;;5052181;28;20402;-72
2022/01/01 08:34:59;;;;;;;9.83;5.73;;;12.10;99.90;;;;;;5051887;28;20427;-72
2022/01/01 08:37:24;;;;;;;8.87;6.40;;;12.20;99.90;;;;;;5052280;28;20656;-72
2022/01/01 08:39:49;;;;;;;8.90;5.97;;;12.10;99.90;;;;;;5050668;28;20202;-72
2022/01/01 08:42:15;;;;;;;8.30;4.90;;;12.20;99.90;;;;;;5052190;28;20642;-72
2022/01/01 08:44:41;;;;;;;9.77;5.77;;;12.20;99.90;;;;;;5051937;28;20537;-72
2022/01/01 08:47:06;;;;;;;10.40;5.40;;;12.20;99.90;;;;;;5052198;28;20266;-72
2022/01/01 08:49:32;;;;;;;6.73;5.40;;;12.30;99.90;;;;;;5051776;28;20265;-72
2022/01/01 08:51:59;;;;;;;12.80;5.90;;;12.40;99.90;;;;;;5051830;28;20236;-72
2022/01/01 08:54:24;;;;;;;15.80;5.73;;;12.30;99.90;;;;;;5052210;28;20258;-72
2022/01/01 08:56:50;;;;;;;11.40;4.90;;;12.30;99.90;;;;;;5051781;28;20501;-72
2022/01/01 08:59:16;;;;;;;8.70;4.80;;;12.20;99.90;;;;;;5050642;28;20207;-72
2022/01/01 09:01:41;;;;;;;5.80;5.23;;;12.30;99.90;;;;;;5051456;28;20167;-72
2022/01/01 09:04:07;;;;;;;10.03;5.30;;;12.30;99.90;;;;;;5051934;28;20458;-73
2022/01/01 09:06:33;;;;;;;17.87;6.00;;;12.30;99.90;;;;;;5051534;28;20272;-72
2022/01/01 09:08:59;;;;;;;7.57;5.37;;;12.30;99.90;;;;;;5052036;28;20198;-72
2022/01/01 09:11:25;;;;;;;6.60;5.00;;;12.30;99.90;;;;;;5051437;28;20420;-72
2022/01/01 09:13:50;;;;;;;5.03;4.20;;;12.40;99.90;;;;;;5051620;28;20904;-72
2022/01/01 09:16:18;;;;;;;6.37;4.20;;;12.50;99.90;;;;;;5051471;28;20167;-72
2022/01/01 09:18:46;;;;;;;8.37;5.20;;;12.40;99.90;;;;;;5051865;28;20260;-73
2022/01/01 09:21:12;;;;;;;6.00;4.70;;;12.40;99.90;;;;;;5051840;28;20908;-73
2022/01/01 09:23:38;;;;;;;12.00;5.00;;;12.40;99.90;;;;;;5051437;28;20539;-72
2022/01/01 09:26:04;;;;;;;12.03;5.40;;;12.50;99.90;;;;;;5051471;28;20401;-72
2022/01/01 09:28:31;;;;;;;10.03;5.83;;;12.60;99.90;;;;;;5051663;28;20398;-72
2022/01/01 09:30:58;;;;;;;8.27;5.97;;;12.60;99.90;;;;;;5053174;28;20402;-73
2022/01/01 09:33:29;;;;;;;6.27;4.43;;;12.50;99.90;;;;;;5056017;28;20494;-72
2022/01/01 09:35:55;;;;;;;13.20;5.50;;;12.60;99.90;;;;;;5056969;28;20408;-74
2022/01/01 09:38:20;;;;;;;8.17;5.63;;;12.50;99.90;;;;;;5055380;28;20624;-73
2022/01/01 09:40:48;;;;;;;11.80;5.33;;;12.60;99.90;;;;;;5054885;28;20519;-73
2022/01/01 09:43:14;;;;;;;7.03;5.13;;;12.50;99.90;;;;;;5055629;28;20186;-73
2022/01/01 09:45:41;;;;;;;10.00;6.37;;;12.60;99.90;;;;;;5056804;28;20418;-73
2022/01/01 09:48:07;;;;;;;13.37;5.50;;;12.60;99.90;;;;;;5056174;28;20787;-72
2022/01/01 09:50:33;;;;;;;11.70;6.33;;;12.60;99.90;;;;;;5053812;28;20492;-73
2022/01/01 09:52:59;;;;;;;11.07;5.50;;;12.70;99.90;;;;;;5051547;28;20405;-73
2022/01/01 09:55:24;;;;;;;5.43;3.90;;;12.70;99.90;;;;;;5051493;28;20891;-73
2022/01/01 09:57:50;;;;;;;6.70;4.83;;;12.60;99.90;;;;;;5051376;28;20201;-73
2022/01/01 10:00:15;;;;;;;5.17;4.13;;;12.70;99.90;;;;;;5051636;28;20221;-72
2022/01/01 10:02:41;;;;;;;7.53;4.80;;;12.60;99.90;;;;;;5051116;28;20238;-74
2022/01/01 10:05:07;;;;;;;13.50;6.00;;;12.70;99.90;;;;;;5051290;28;20166;-77
2022/01/01 10:07:33;;;;;;;10.20;5.40;;;12.70;99.90;;;;;;5050961;28;20167;-72
2022/01/01 10:10:20;;;;;;;12.13;5.03;;;12.60;99.90;;;;;;5051266;28;20433;-73
2022/01/01 10:12:46;;;;;;;6.40;4.93;;;12.70;99.90;;;;;;5049939;28;20623;-71
2022/01/01 10:15:12;;;;;;;7.10;4.80;;;12.70;99.90;;;;;;5051332;28;20445;-71
2022/01/01 10:17:37;;;;;;;8.27;5.63;;;12.60;99.90;;;;;;5051409;28;20168;-72
2022/01/01 10:20:04;;;;;;;11.27;6.10;;;12.60;99.90;;;;;;5049834;28;20209;-72
2022/01/01 10:22:30;;;;;;;12.07;6.13;;;12.70;99.90;;;;;;5051352;28;20541;-72
2022/01/01 10:28:03;;;;;;;11.10;6.70;;;12.70;99.90;;;;;;5051654;28;20405;-72
2022/01/01 10:30:28;;;;;;;10.50;5.87;;;12.60;99.90;;;;;;5051217;28;20433;-72
2022/01/01 10:33:18;;;;;;;7.37;5.47;;;12.60;99.90;;;;;;5050894;28;20911;-71
2022/01/01 10:35:46;;;;;;;10.07;6.00;;;12.70;99.90;;;;;;5050823;28;20364;-72
2022/01/01 10:38:16;;;;;;;8.13;5.53;;;12.60;99.90;;;;;;5050830;28;20504;-71
2022/01/01 10:40:44;;;;;;;8.97;4.50;;;12.50;99.90;;;;;;5050932;28;20398;-71
2022/01/01 10:43:10;;;;;;;9.10;5.57;;;12.60;99.90;;;;;;5053047;28;20390;-72
2022/01/01 10:45:41;;;;;;;10.13;6.40;;;12.50;99.90;;;;;;5050938;28;20978;-72
2022/01/01 10:48:17;;;;;;;14.93;5.77;;;12.50;99.90;;;;;;5048488;28;20413;-72
2022/01/01 10:50:45;;;;;;;10.70;5.00;;;12.50;99.90;;;;;;5042932;28;20410;-71
2022/01/01 10:53:22;;;;;;;10.43;5.53;;;12.40;99.90;;;;;;5034149;28;20398;-71
2022/01/01 10:55:54;;;;;;;5.93;4.80;;;12.50;99.90;;;;;;5035131;28;20406;-71
2022/01/01 10:58:22;;;;;;;7.50;5.10;;;12.50;99.90;;;;;;5034982;28;20465;-72
2022/01/01 11:00:48;;;;;;;15.07;5.97;;;12.50;99.90;;;;;;5042955;28;20405;-72
2022/01/01 11:03:16;;;;;;;12.03;6.50;;;12.60;99.90;;;;;;5048687;28;20487;-71
2022/01/01 11:05:47;;;;;;;9.37;6.73;;;12.50;99.90;;;;;;5057691;28;20409;-71
2022/01/01 11:08:13;;;;;;;7.17;5.90;;;12.50;99.90;;;;;;5057684;28;20408;-71
2022/01/01 11:10:40;;;;;;;9.30;5.93;;;12.60;99.90;;;;;;5057400;28;20405;-71
2022/01/01 11:13:08;;;;;;;9.67;5.80;;;12.60;99.90;;;;;;5057061;28;20416;-71
2022/01/01 11:15:34;;;;;;;27.97;5.57;;;12.60;99.90;;;;;;5056858;28;20420;-71
2022/01/01 11:18:01;;;;;;;10.63;5.40;;;12.60;99.90;;;;;;5057089;28;20764;-72
2022/01/01 11:20:33;;;;;;;17.00;6.80;;;12.60;99.90;;;;;;5056061;28;20464;-72
2022/01/01 11:23:06;;;;;;;9.97;5.50;;;12.60;99.90;;;;;;5057412;28;20432;-72
2022/01/01 11:25:33;;;;;;;6.70;5.30;;;12.60;99.90;;;;;;5057040;28;20398;-72
2022/01/01 11:27:59;;;;;;;5.80;5.13;;;12.60;99.90;;;;;;5057068;28;20417;-72
2022/01/01 11:30:30;;;;;;;8.63;5.33;;;12.70;99.90;;;;;;5057495;28;20421;-72
2022/01/01 11:33:09;;;;;;;6.50;5.00;;;12.70;99.90;;;;;;5056540;28;20413;-72
2022/01/01 11:35:43;;;;;;;10.87;5.57;;;12.70;99.90;;;;;;5054231;28;20559;-72
2022/01/01 11:38:12;;;;;;;6.70;5.03;;;12.70;99.90;;;;;;5053771;28;20467;-72
2022/01/01 11:40:52;;;;;;;8.33;4.80;;;12.70;99.90;;;;;;5053383;28;20479;-72
2022/01/01 11:43:32;;;;;;;6.70;4.93;;;12.70;99.90;;;;;;5053446;28;20405;-72
2022/01/01 11:45:59;;;;;;;7.00;4.80;;;12.80;99.90;;;;;;5053028;28;20401;-72
2022/01/01 11:48:41;;;;;;;9.93;6.27;;;12.80;99.90;;;;;;5052066;28;20402;-71
2022/01/01 11:51:20;;;;;;;10.97;5.10;;;13.00;99.90;;;;;;5053240;28;20547;-72
2022/01/01 11:54:05;;;;;;;9.97;5.93;;;13.10;99.90;;;;;;5052776;28;20421;-72
2022/01/01 11:56:46;;;;;;;10.43;4.70;;;13.00;99.90;;;;;;5068269;28;20776;-71
2022/01/01 11:59:38;;;;;;;9.17;6.23;;;13.10;99.90;;;;;;5052978;28;20488;-72
2022/01/01 12:02:05;;;;;;;11.30;6.10;;;13.20;99.90;;;;;;5052596;28;20451;-72
2022/01/01 12:04:41;;;;;;;13.80;6.73;;;13.10;99.90;;;;;;5052855;28;20439;-72
2022/01/01 12:07:15;;;;;;;20.03;7.43;;;13.00;99.90;;;;;;5052646;28;20492;-72
2022/01/01 12:10:07;;;;;;;14.87;6.33;;;13.10;99.90;;;;;;5052966;28;20472;-72
2022/01/01 12:12:39;;;;;;;8.37;4.47;;;13.20;99.90;;;;;;5052314;28;20944;-71
2022/01/01 12:15:18;;;;;;;8.57;5.30;;;13.00;99.90;;;;;;5052772;28;20444;-72
2022/01/01 12:17:57;;;;;;;8.80;5.33;;;13.00;99.90;;;;;;5052691;28;20865;-72
2022/01/01 12:20:25;;;;;;;10.33;5.77;;;13.00;99.90;;;;;;5052794;28;20511;-72
2022/01/01 12:22:51;;;;;;;8.80;5.17;;;12.90;99.90;;;;;;5052530;28;20479;-72
2022/01/01 12:25:22;;;;;;;8.57;5.30;;;13.00;99.90;;;;;;5052667;28;20405;-70
2022/01/01 12:27:50;;;;;;;14.87;6.50;;;13.10;99.90;;;;;;5052056;28;20414;-71
2022/01/01 12:30:29;;;;;;;8.90;6.23;;;12.90;99.90;;;;;;5059414;28;20476;-71
2022/01/01 12:32:54;;;;;;;14.10;7.77;;;12.90;99.90;;;;;;5059340;28;20769;-72
2022/01/01 12:35:41;;;;;;;12.20;6.17;;;12.90;99.90;;;;;;5052487;28;20496;-72
2022/01/01 12:38:09;;;;;;;9.73;5.50;;;12.80;99.90;;;;;;5059851;28;20647;-72
2022/01/01 12:40:36;;;;;;;7.60;4.93;;;12.90;99.90;;;;;;5071884;28;20479;-72
2022/01/01 12:43:10;;;;;;;7.03;5.60;;;12.90;99.90;;;;;;5071910;28;20906;-70
2022/01/01 12:45:39;;;;;;;13.20;5.50;;;12.90;99.90;;;;;;5072095;28;20400;-70